createdAt,value
2022-08-04T00:01:12.153Z,4.60
2022-08-04T00:03:47.126Z,4.73
2022-08-04T00:06:27.516Z,3.70
2022-08-04T00:08:59.254Z,4.00
2022-08-04T00:11:31.922Z,4.40
2022-08-04T00:14:05.713Z,4.20
2022-08-04T00:16:38.808Z,4.03
2022-08-04T00:19:14.025Z,4.27
2022-08-04T00:21:49.435Z,3.83
2022-08-04T00:24:19.002Z,4.53
2022-08-04T00:26:48.535Z,4.10
2022-08-04T00:29:17.304Z,4.00
2022-08-04T00:31:56.404Z,4.07
2022-08-04T00:34:29.032Z,4.20
2022-08-04T00:36:59.592Z,3.20
2022-08-04T00:39:29.424Z,3.30
2022-08-04T00:42:18.716Z,4.60
2022-08-04T00:45:08.312Z,3.70
2022-08-04T00:47:52.807Z,4.80
2022-08-04T00:50:31.150Z,3.60
2022-08-04T00:53:09.448Z,4.17
2022-08-04T00:56:17.501Z,3.83
2022-08-04T00:59:04.652Z,3.90
2022-08-04T01:01:56.680Z,3.90
2022-08-04T01:04:42.997Z,3.83
2022-08-04T01:07:33.156Z,4.63
2022-08-04T01:10:14.227Z,4.00
2022-08-04T01:13:15.358Z,3.80
2022-08-04T01:16:00.178Z,4.37
2022-08-04T01:18:42.642Z,3.77
2022-08-04T01:21:52.608Z,4.30
2022-08-04T01:24:38.272Z,3.50
2022-08-04T01:27:13.388Z,4.07
2022-08-04T01:29:51.413Z,3.90
2022-08-04T01:32:33.362Z,4.40
2022-08-04T01:35:07.593Z,3.87
2022-08-04T01:37:51.109Z,3.73
2022-08-04T01:40:20.401Z,4.10
2022-08-04T01:42:54.377Z,4.40
2022-08-04T01:45:27.041Z,4.43
2022-08-04T01:47:57.217Z,4.60
2022-08-04T01:50:28.004Z,3.80
2022-08-04T01:52:57.379Z,3.90
2022-08-04T01:55:55.262Z,3.90
2022-08-04T01:58:19.663Z,3.80
2022-08-04T02:00:59.913Z,3.83
2022-08-04T02:04:18.883Z,4.00
2022-08-04T02:06:32.518Z,3.57
2022-08-04T02:09:10.262Z,3.47
2022-08-04T02:11:42.284Z,3.53
2022-08-04T02:14:35.835Z,3.63
2022-08-04T02:17:13.078Z,3.30
2022-08-04T02:20:07.065Z,3.73
2022-08-04T02:22:42.669Z,4.30
2022-08-04T02:25:13.064Z,3.53
2022-08-04T02:28:12.767Z,3.73
2022-08-04T02:30:48.570Z,4.30
2022-08-04T02:33:24.199Z,3.70
2022-08-04T02:36:02.413Z,4.23
2022-08-04T02:38:58.283Z,4.43
2022-08-04T02:41:28.896Z,4.10
2022-08-04T02:44:02.090Z,4.17
2022-08-04T02:46:32.396Z,3.97
2022-08-04T02:49:06.127Z,4.30
2022-08-04T02:51:38.970Z,4.70
2022-08-04T02:54:09.032Z,4.30
2022-08-04T02:56:39.539Z,4.10
2022-08-04T02:59:11.853Z,3.90
2022-08-04T03:01:57.966Z,3.87
2022-08-04T03:04:46.373Z,3.83
2022-08-04T03:07:58.661Z,3.70
2022-08-04T03:11:20.791Z,3.80
2022-08-04T03:14:43.517Z,4.10
2022-08-04T03:17:36.877Z,5.10
2022-08-04T03:21:19.825Z,3.83
2022-08-04T03:24:43.309Z,4.93
2022-08-04T03:27:55.437Z,3.93
2022-08-04T03:30:41.542Z,3.93
2022-08-04T03:33:43.502Z,4.10
2022-08-04T03:37:26.937Z,4.10
2022-08-04T03:40:46.140Z,3.97
2022-08-04T03:43:57.482Z,3.90
2022-08-04T03:47:14.706Z,3.73
2022-08-04T03:50:41.475Z,4.80
2022-08-04T03:53:43.962Z,3.80
2022-08-04T03:56:38.277Z,4.20
2022-08-04T03:59:28.445Z,3.87
2022-08-04T04:02:41.036Z,3.83
2022-08-04T04:06:00.144Z,3.60
2022-08-04T04:08:52.876Z,4.30
2022-08-04T04:11:56.387Z,4.50
2022-08-04T04:14:55.920Z,4.23
2022-08-04T04:18:01.654Z,3.87
2022-08-04T04:20:55.463Z,4.10
2022-08-04T04:23:40.988Z,4.13
2022-08-04T04:26:39.998Z,4.37
2022-08-04T04:29:31.544Z,3.87
2022-08-04T04:32:18.714Z,3.97
2022-08-04T04:35:03.969Z,4.07
2022-08-04T04:37:58.708Z,4.50
2022-08-04T04:40:40.183Z,4.20
2022-08-04T04:43:50.859Z,4.03
2022-08-04T04:46:33.738Z,3.03
2022-08-04T04:49:13.146Z,3.87
2022-08-04T04:51:50.396Z,4.00
2022-08-04T04:54:30.397Z,4.10
2022-08-04T04:57:11.239Z,4.10
2022-08-04T04:59:50.846Z,4.00
2022-08-04T05:03:00.433Z,3.60
2022-08-04T05:05:43.740Z,4.20
2022-08-04T05:08:44.750Z,3.87
2022-08-04T05:11:59.747Z,4.20
2022-08-04T05:14:41.470Z,4.90
2022-08-04T05:17:22.193Z,7.93
2022-08-04T05:20:02.201Z,4.33
2022-08-04T05:22:37.246Z,3.70
2022-08-04T05:25:14.883Z,5.30
2022-08-04T05:27:51.727Z,4.10
2022-08-04T05:30:21.501Z,4.57
2022-08-04T05:33:00.894Z,3.83
2022-08-04T05:35:47.754Z,3.70
2022-08-04T05:38:28.842Z,5.30
2022-08-04T05:40:58.460Z,4.03
2022-08-04T05:43:28.103Z,4.00
2022-08-04T05:45:57.938Z,4.00
2022-08-04T05:48:29.306Z,3.97
2022-08-04T05:51:00.930Z,4.00
2022-08-04T05:53:30.627Z,4.53
2022-08-04T05:56:00.550Z,3.37
2022-08-04T05:58:31.962Z,4.00
2022-08-04T06:01:02.564Z,4.83
2022-08-04T06:03:33.181Z,4.10
2022-08-04T06:06:02.348Z,4.03
2022-08-04T06:08:31.594Z,3.67
2022-08-04T06:11:05.581Z,3.43
2022-08-04T06:13:46.688Z,4.10
2022-08-04T06:16:28.867Z,3.50
2022-08-04T06:19:58.508Z,3.97
2022-08-04T06:21:55.934Z,3.50
2022-08-04T06:24:27.830Z,4.50
2022-08-04T06:26:58.009Z,4.30
2022-08-04T06:29:34.209Z,4.30
2022-08-04T06:32:27.285Z,3.40
2022-08-04T06:35:02.998Z,4.20
2022-08-04T06:37:41.968Z,4.07
2022-08-04T06:40:29.821Z,4.10
2022-08-04T06:43:02.270Z,4.33
2022-08-04T06:45:34.545Z,3.83
2022-08-04T06:48:04.979Z,3.73
2022-08-04T06:51:30.690Z,3.60
2022-08-04T06:53:27.095Z,4.40
2022-08-04T06:55:57.855Z,4.23
2022-08-04T06:58:26.805Z,4.20
2022-08-04T07:01:01.832Z,4.50
2022-08-04T07:03:30.975Z,4.00
2022-08-04T07:06:05.588Z,3.73
2022-08-04T07:08:36.983Z,4.30
2022-08-04T07:11:07.140Z,4.43
2022-08-04T07:13:35.960Z,4.17
2022-08-04T07:16:05.843Z,3.97
2022-08-04T07:18:34.345Z,4.10
2022-08-04T07:21:04.117Z,4.13
2022-08-04T07:23:32.869Z,4.33
2022-08-04T07:26:12.208Z,5.40
2022-08-04T07:28:42.697Z,4.37
2022-08-04T07:31:33.786Z,5.60
2022-08-04T07:34:16.615Z,5.20
2022-08-04T07:36:55.621Z,5.20
2022-08-04T07:39:28.008Z,4.57
2022-08-04T07:42:01.766Z,5.50
2022-08-04T07:44:32.217Z,4.90
2022-08-04T07:47:02.396Z,4.70
2022-08-04T07:49:54.774Z,4.63
2022-08-04T07:52:22.208Z,5.47
2022-08-04T07:54:51.712Z,4.77
2022-08-04T07:57:41.498Z,4.90
2022-08-04T08:00:14.305Z,4.73
2022-08-04T08:02:43.755Z,4.47
2022-08-04T08:05:15.089Z,4.17
2022-08-04T08:07:50.649Z,3.93
2022-08-04T08:10:23.269Z,4.80
2022-08-04T08:12:53.219Z,4.33
2022-08-04T08:15:23.007Z,3.93
2022-08-04T08:17:58.812Z,4.40
2022-08-04T08:20:31.163Z,4.70
2022-08-04T08:23:02.810Z,4.47
2022-08-04T08:25:33.671Z,4.60
2022-08-04T08:28:05.213Z,4.13
2022-08-04T08:30:35.690Z,4.60
2022-08-04T08:33:07.742Z,5.00
2022-08-04T08:35:53.989Z,5.50
2022-08-04T08:38:40.193Z,4.33
2022-08-04T08:41:52.142Z,4.30
2022-08-04T08:44:59.148Z,5.07
2022-08-04T08:48:05.131Z,3.70
2022-08-04T08:51:11.449Z,3.55
2022-08-04T08:54:27.970Z,3.85
2022-08-04T08:57:14.543Z,4.40
2022-08-04T09:00:03.016Z,3.40
2022-08-04T09:03:12.035Z,5.70
2022-08-04T09:06:31.793Z,3.83
2022-08-04T09:09:47.498Z,4.25
2022-08-04T09:12:31.930Z,4.00
2022-08-04T09:15:08.102Z,3.95
2022-08-04T09:17:43.747Z,3.67
2022-08-04T09:20:23.429Z,4.03
2022-08-04T09:23:01.905Z,3.75
2022-08-04T09:25:39.057Z,3.80
2022-08-04T09:28:31.639Z,4.35
2022-08-04T09:31:11.002Z,5.55
2022-08-04T09:33:49.555Z,3.40
2022-08-04T09:36:32.317Z,3.95
2022-08-04T09:39:13.254Z,3.75
2022-08-04T09:41:55.982Z,3.40
2022-08-04T09:44:52.475Z,4.10
2022-08-04T09:47:39.631Z,3.55
2022-08-04T09:50:30.736Z,3.20
2022-08-04T09:53:12.702Z,3.90
2022-08-04T09:55:56.359Z,3.88
2022-08-04T09:58:42.110Z,3.75
2022-08-04T10:01:14.564Z,3.83
2022-08-04T10:03:50.773Z,4.05
2022-08-04T10:06:44.622Z,3.60
2022-08-04T10:09:34.815Z,3.63
2022-08-04T10:12:18.582Z,3.70
2022-08-04T10:14:55.543Z,4.20
2022-08-04T10:17:52.376Z,4.72
2022-08-04T10:20:51.842Z,3.72
2022-08-04T10:23:55.305Z,3.30
2022-08-04T10:26:36.340Z,3.60
2022-08-04T10:29:11.128Z,3.90
2022-08-04T10:31:50.432Z,3.33
2022-08-04T10:34:23.050Z,3.90
2022-08-04T10:37:03.051Z,3.40
2022-08-04T10:39:44.537Z,3.60
2022-08-04T10:42:23.893Z,3.03
2022-08-04T10:45:15.686Z,3.63
2022-08-04T10:47:53.661Z,3.28
2022-08-04T10:50:25.449Z,3.50
2022-08-04T10:53:03.916Z,3.53
2022-08-04T10:56:06.399Z,3.00
2022-08-04T10:58:47.414Z,3.28
2022-08-04T11:02:01.476Z,3.00
2022-08-04T11:04:28.050Z,3.05
2022-08-04T11:06:57.665Z,2.85
2022-08-04T11:09:26.392Z,2.72
2022-08-04T11:12:01.578Z,2.55
2022-08-04T11:14:39.208Z,3.22
2022-08-04T11:17:15.667Z,3.10
2022-08-04T11:19:53.940Z,2.83
2022-08-04T11:22:28.621Z,3.15
2022-08-04T11:25:09.544Z,3.47
2022-08-04T11:27:53.036Z,3.40
2022-08-04T11:30:22.069Z,2.80
2022-08-04T11:33:02.270Z,2.92
2022-08-04T11:35:39.054Z,3.00
2022-08-04T11:38:14.146Z,3.55
2022-08-04T11:40:55.845Z,2.90
2022-08-04T11:44:01.194Z,2.35
2022-08-04T11:46:34.209Z,2.55
2022-08-04T11:49:08.433Z,2.35
2022-08-04T11:51:39.202Z,2.80
2022-08-04T11:54:08.100Z,2.97
2022-08-04T11:56:38.256Z,2.75
2022-08-04T11:59:09.324Z,2.40
2022-08-04T12:02:02.150Z,2.50
2022-08-04T12:04:47.308Z,2.40
2022-08-04T12:07:32.001Z,2.40
2022-08-04T12:10:40.283Z,2.90
2022-08-04T12:13:22.241Z,2.20
2022-08-04T12:16:03.577Z,2.40
2022-08-04T12:18:40.597Z,2.20
2022-08-04T12:21:13.957Z,2.30
2022-08-04T12:23:46.538Z,1.77
2022-08-04T12:26:22.984Z,2.20
2022-08-04T12:29:12.557Z,2.17
2022-08-04T12:31:48.532Z,2.27
2022-08-04T12:34:29.978Z,2.10
2022-08-04T12:37:06.693Z,1.90
2022-08-04T12:40:27.809Z,2.20
2022-08-04T12:42:38.385Z,2.50
2022-08-04T12:45:10.297Z,1.70
2022-08-04T12:47:40.459Z,2.90
2022-08-04T12:50:11.891Z,2.60
2022-08-04T12:53:04.035Z,2.27
2022-08-04T12:55:37.175Z,2.23
2022-08-04T12:58:41.893Z,1.80
2022-08-04T13:02:08.704Z,2.17
2022-08-04T13:04:03.907Z,1.73
2022-08-04T13:06:36.205Z,2.30
2022-08-04T13:09:09.602Z,1.50
2022-08-04T13:11:52.754Z,1.83
2022-08-04T13:14:27.402Z,1.90
2022-08-04T13:17:00.131Z,2.33
2022-08-04T13:19:31.009Z,3.50
2022-08-04T13:22:02.987Z,3.33
2022-08-04T13:24:41.654Z,3.13
2022-08-04T13:27:25.642Z,2.70
2022-08-04T13:29:59.865Z,3.00
2022-08-04T13:32:31.525Z,2.47
2022-08-04T13:35:03.900Z,3.03
2022-08-04T13:37:35.934Z,2.73
2022-08-04T13:40:06.597Z,2.33
2022-08-04T13:42:38.685Z,2.40
2022-08-04T13:45:10.412Z,2.30
2022-08-04T13:47:41.513Z,2.20
2022-08-04T13:50:19.788Z,2.43
2022-08-04T13:52:49.006Z,2.30
2022-08-04T13:55:23.885Z,2.80
2022-08-04T13:57:59.970Z,2.30
2022-08-04T14:00:41.995Z,2.00
2022-08-04T14:03:23.045Z,2.60
2022-08-04T14:06:14.189Z,2.40
2022-08-04T14:08:52.633Z,2.37
2022-08-04T14:12:10.016Z,2.83
2022-08-04T14:14:27.992Z,2.43
2022-08-04T14:17:02.937Z,2.23
2022-08-04T14:19:50.415Z,2.93
2022-08-04T14:22:37.542Z,2.43
2022-08-04T14:25:15.710Z,2.23
2022-08-04T14:27:47.674Z,2.60
2022-08-04T14:30:27.393Z,2.50
2022-08-04T14:32:58.665Z,2.33
2022-08-04T14:35:49.976Z,2.00
2022-08-04T14:38:16.592Z,2.33
2022-08-04T14:40:45.809Z,2.70
2022-08-04T14:43:19.411Z,2.17
2022-08-04T14:45:54.021Z,2.37
2022-08-04T14:48:23.761Z,2.60
2022-08-04T14:50:52.812Z,2.40
2022-08-04T14:53:26.356Z,2.40
2022-08-04T14:55:57.951Z,2.20
2022-08-04T14:58:35.315Z,2.30
2022-08-04T15:01:12.251Z,2.63
2022-08-04T15:03:50.425Z,2.77
2022-08-04T15:06:23.905Z,2.30
2022-08-04T15:08:53.336Z,2.20
2022-08-04T15:11:24.430Z,2.70
2022-08-04T15:13:53.970Z,2.10
2022-08-04T15:16:25.353Z,2.83
2022-08-04T15:18:56.862Z,2.60
2022-08-04T15:21:29.049Z,2.40
2022-08-04T15:23:58.713Z,2.00
2022-08-04T15:26:34.889Z,2.40
2022-08-04T15:29:16.445Z,2.33
2022-08-04T15:32:07.953Z,2.90
2022-08-04T15:34:47.524Z,3.07
2022-08-04T15:37:20.496Z,2.33
2022-08-04T15:39:57.635Z,2.93
2022-08-04T15:42:37.156Z,2.57
2022-08-04T15:45:22.171Z,2.77
2022-08-04T15:48:27.287Z,2.70
2022-08-04T15:51:15.322Z,2.67
2022-08-04T15:54:30.725Z,3.33
2022-08-04T15:57:03.687Z,2.50
2022-08-04T16:00:01.787Z,2.70
2022-08-04T16:02:43.855Z,2.93
2022-08-04T16:05:40.211Z,2.57
2022-08-04T16:08:14.903Z,2.97
2022-08-04T16:10:51.039Z,2.90
2022-08-04T16:13:22.414Z,2.60
2022-08-04T16:15:54.328Z,3.00
2022-08-04T16:18:43.712Z,3.20
2022-08-04T16:21:26.247Z,2.67
2022-08-04T16:24:21.418Z,3.03
2022-08-04T16:26:56.853Z,2.67
2022-08-04T16:29:31.222Z,2.60
2022-08-04T16:32:15.549Z,2.80
2022-08-04T16:34:55.468Z,2.80
2022-08-04T16:37:32.258Z,2.87
2022-08-04T16:40:46.326Z,2.40
2022-08-04T16:43:17.481Z,2.80
2022-08-04T16:45:55.594Z,2.10
2022-08-04T16:48:27.223Z,2.70
2022-08-04T16:51:06.628Z,2.90
2022-08-04T16:53:51.898Z,3.20
2022-08-04T16:56:33.488Z,3.13
2022-08-04T16:59:09.527Z,2.40
2022-08-04T17:01:39.006Z,2.70
2022-08-04T17:04:08.121Z,2.70
2022-08-04T17:06:39.739Z,2.70
2022-08-04T17:09:13.278Z,2.70
2022-08-04T17:11:42.943Z,2.50
2022-08-04T17:14:12.067Z,2.30
2022-08-04T17:16:43.388Z,2.77
2022-08-04T17:19:25.094Z,2.70
2022-08-04T17:22:04.948Z,2.63
2022-08-04T17:24:38.332Z,3.07
2022-08-04T17:28:18.373Z,2.90
2022-08-04T17:29:57.730Z,2.53
2022-08-04T17:32:26.571Z,3.53
2022-08-04T17:34:57.292Z,2.70
2022-08-04T17:40:18.679Z,3.00
2022-08-04T17:42:51.907Z,3.13
2022-08-04T17:45:50.770Z,3.50
2022-08-04T17:51:16.785Z,4.20
2022-08-04T17:54:02.757Z,3.57
2022-08-04T17:56:43.178Z,3.77
2022-08-04T17:59:57.029Z,3.60
2022-08-04T18:02:12.935Z,3.37
2022-08-04T18:05:06.122Z,3.37
2022-08-04T18:08:38.894Z,3.57
2022-08-04T18:10:46.306Z,2.60
2022-08-04T18:13:27.211Z,2.80
2022-08-04T18:16:03.466Z,3.60
2022-08-04T18:18:32.020Z,3.60
2022-08-04T18:21:03.399Z,2.83
2022-08-04T18:23:33.730Z,3.00
2022-08-04T18:28:52.518Z,3.00
2022-08-04T18:31:21.462Z,3.70
2022-08-04T18:36:39.935Z,3.47
2022-08-04T18:40:24.934Z,2.80
2022-08-04T18:42:14.170Z,3.00
2022-08-04T18:44:52.983Z,3.07
2022-08-04T18:47:23.537Z,3.27
2022-08-04T18:50:59.272Z,3.23
2022-08-04T18:52:42.112Z,3.10
2022-08-04T18:55:57.589Z,3.80
2022-08-04T18:58:06.291Z,3.07
2022-08-04T19:00:45.668Z,3.60
2022-08-04T19:03:16.580Z,3.60
2022-08-04T19:05:52.082Z,3.53
2022-08-04T19:08:33.531Z,3.90
2022-08-04T19:11:38.591Z,3.33
2022-08-04T19:13:58.592Z,2.97
2022-08-04T19:16:30.253Z,2.93
2022-08-04T19:19:00.289Z,2.83
2022-08-04T19:22:01.221Z,3.23
2022-08-04T19:24:31.786Z,3.40
2022-08-04T19:27:07.554Z,3.20
2022-08-04T19:29:41.035Z,3.70
2022-08-04T19:32:16.124Z,3.07
2022-08-04T19:34:47.337Z,3.23
2022-08-04T19:38:01.492Z,2.90
2022-08-04T19:40:09.507Z,3.00
2022-08-04T19:42:38.719Z,3.10
2022-08-04T19:45:09.926Z,3.20
2022-08-04T19:48:16.761Z,2.83
2022-08-04T19:50:35.060Z,3.43
2022-08-04T19:53:04.223Z,3.30
2022-08-04T19:55:50.271Z,3.60
2022-08-04T19:58:21.670Z,3.27
2022-08-04T20:00:55.123Z,3.77
2022-08-04T20:04:08.449Z,3.10
2022-08-04T20:06:14.492Z,3.03
2022-08-04T20:08:48.100Z,3.00
2022-08-04T20:11:18.918Z,3.20
2022-08-04T20:13:54.298Z,3.47
2022-08-04T20:16:29.542Z,2.97
2022-08-04T20:19:04.517Z,3.20
2022-08-04T20:21:54.213Z,3.30
2022-08-04T20:24:39.201Z,2.80
2022-08-04T20:27:15.564Z,2.73
2022-08-04T20:29:49.079Z,2.60
2022-08-04T20:32:21.952Z,3.03
2022-08-04T20:34:54.242Z,2.40
2022-08-04T20:37:24.279Z,2.70
2022-08-04T20:39:56.607Z,3.03
2022-08-04T20:42:33.802Z,2.93
2022-08-04T20:45:03.403Z,3.13
2022-08-04T20:47:35.513Z,2.77
2022-08-04T20:50:08.985Z,3.10
2022-08-04T20:52:39.453Z,2.70
2022-08-04T20:55:10.238Z,2.93
2022-08-04T20:57:48.468Z,2.27
2022-08-04T21:00:26.556Z,2.70
2022-08-04T21:02:59.217Z,2.97
2022-08-04T21:05:31.353Z,3.07
2022-08-04T21:08:01.716Z,2.93
2022-08-04T21:10:30.679Z,2.70
2022-08-04T21:12:59.411Z,3.23
2022-08-04T21:15:58.115Z,2.87
2022-08-04T21:18:16.755Z,3.30
2022-08-04T21:20:48.336Z,3.70
2022-08-04T21:23:17.038Z,2.87
2022-08-04T21:25:49.906Z,3.33
2022-08-04T21:28:20.354Z,3.40
2022-08-04T21:30:52.499Z,4.20
2022-08-04T21:33:50.711Z,3.40
2022-08-04T21:36:22.236Z,3.40
2022-08-04T21:38:56.104Z,4.23
2022-08-04T21:41:27.083Z,3.30
2022-08-04T21:43:58.545Z,3.37
2022-08-04T21:46:30.012Z,3.37
2022-08-04T21:48:59.390Z,4.10
2022-08-04T21:52:00.244Z,3.10
2022-08-04T21:54:22.186Z,3.20
2022-08-04T21:56:52.657Z,3.47
2022-08-04T21:59:23.974Z,3.20
2022-08-04T22:02:00.184Z,3.10
2022-08-04T22:04:29.416Z,2.97
2022-08-04T22:07:02.950Z,2.80
2022-08-04T22:09:41.009Z,3.40
2022-08-04T22:12:12.008Z,3.60
2022-08-04T22:14:40.928Z,3.50
2022-08-04T22:17:13.312Z,3.33
2022-08-04T22:19:55.706Z,2.90
2022-08-04T22:22:29.591Z,3.03
2022-08-04T22:25:06.163Z,3.30
2022-08-04T22:28:05.705Z,3.60
2022-08-04T22:30:38.455Z,3.07
2022-08-04T22:33:16.773Z,3.37
2022-08-04T22:35:49.684Z,3.43
2022-08-04T22:38:28.098Z,3.40
2022-08-04T22:41:08.199Z,3.57
2022-08-04T22:43:38.036Z,3.37
2022-08-04T22:46:09.042Z,3.20
2022-08-04T22:48:43.736Z,2.93
2022-08-04T22:51:13.243Z,3.50
2022-08-04T22:53:48.561Z,3.33
2022-08-04T22:56:37.394Z,3.40
2022-08-04T22:59:06.198Z,3.20
2022-08-04T23:02:00.879Z,3.50
2022-08-04T23:04:25.759Z,3.53
2022-08-04T23:06:55.262Z,3.10
2022-08-04T23:09:49.502Z,3.03
2022-08-04T23:12:29.161Z,3.40
2022-08-04T23:14:59.124Z,2.80
2022-08-04T23:17:31.109Z,3.70
2022-08-04T23:20:23.547Z,3.40
2022-08-04T23:23:12.364Z,3.40
2022-08-04T23:26:07.671Z,3.60
2022-08-04T23:28:35.191Z,3.57
2022-08-04T23:31:04.762Z,3.20
2022-08-04T23:33:49.305Z,3.40
2022-08-04T23:36:29.790Z,3.33
2022-08-04T23:39:01.253Z,3.70
2022-08-04T23:41:53.714Z,3.23
2022-08-04T23:44:24.966Z,3.50
2022-08-04T23:47:00.406Z,3.50
2022-08-04T23:49:42.331Z,3.37
2022-08-04T23:52:23.581Z,3.73
2022-08-04T23:54:59.072Z,3.40
2022-08-04T23:57:30.832Z,3.43
